Yosemite Valley, CA

5:59 AM PDT on April 25, 2015 (GMT -0700)
Loggers Retreat | | Change Station
CLOSE
Current Station
Personal Weather Station
Location: Fish Camp, CA
Elevation: 4960 ft
Nearby Weather Stations
Active Advisory: Winter Weather Advisory Active Notice: Public Information Statement

Elev 4960 ft 37.45 °N, 119.65 °W | Updated 29 minutes ago

Snow
Snow
34.3 °F
Feels Like 34 °F
N
0.0
Wind Variable Wind from West
Gusts 2.0 mph

Today
High -- | Low -- °F
--% Chance of Precip.
Yesterday
High -- | Low -- °F
Precip. -- in
6:10 AM 7:43 PM
Waxing Crescent, 45% visible
Pressure 29.86 in
Visibility 3.0 miles
Clouds Overcast 300 ft
Windchill 34 °F
Dew Point 32 °F
Humidity 91%
Rainfall 0.25 in
Snow Depth Not available.
UV 0.0 out of 12
Pollen 8.60 out of 12
Air Quality Not available.
Flu Activity Sporadic
METAR KO22 251235Z AUTO 17006KT 3SM OVC003 09/09 A2986 RMK AO1 P0006

More Conditions Fewer Conditions

Pressure 29.86 in
Visibility 3.0 miles
Clouds Overcast 300 ft
Windchill 34 °F
Dew Point 32 °F
Humidity 91%
Rainfall 0.25 in
Snow Depth Not available.
UV 0.0 out of 12
Pollen 8.60 out of 12
Air Quality Not available.
Flu Activity Sporadic
METAR KO22 251235Z AUTO 17006KT 3SM OVC003 09/09 A2986 RMK AO1 P0006

More Conditions Fewer Conditions

10-Day Weather Forecast

Almanac

Astronomy

Apr. 25, 2015 Rise Set
Actual Time
Civil Twilight
Nautical Twilight
Astronomical Twilight
Moon
Length of Visible Light
Length of Day
Tomorrow will be .
, % of the Moon is Illuminated

Today's Extremes

State Highs State Lows

Community

WunderPhotos

Upload Photos

1,816,649 photos uploaded!

WunderBlogs® & News

Nearby

Air Quality

  Air Quality AQ Index Pollutant
Not available.

Snow Depth

Station Depth Elevation

Earthquake Activity

City Distance Mag. Time & Date
Minimum magnitude displayed is 2.5.

Coastal Water Temperatures

Place Temperature

Stations

Nearby Weather Stations

Station Location Temp. Windchill Dew Point Humidity Wind Precip. Elev Updated Type
                   
Winter Weather Advisory
Statement as of 4:57 AM PDT on April 25, 2015

... Winter Weather Advisory remains in effect until 5 PM PDT this
afternoon...

* accumulations... snow accumulation of 2 to 4 inches. Up to 8
inches over the high country.

* Elevation: above 6500 feet.

* Timing... the period of steadiest snow will occur this morning.
Frequent snow showers are likely throughout the afternoon before
ending as snow flurries early this evening.

* Impacts... winter driving conditions and travel delays with
possible chain restrictions.

* Winds... southwest 15 to 25 mph with local gusts up to 50 mph
along the Sierra crest.

Precautionary/preparedness actions...

A Winter Weather Advisory for snow means that periods of snow
will cause primarily travel difficulties. Be prepared for snow
covered roads and limited visibilities... and use caution while
driving.


Durfee